createdAt,value
2023-03-23T15:57:53.149Z,24.75
2023-03-23T16:00:21.465Z,24.81
2023-03-23T16:02:52.956Z,25.22
2023-03-23T16:05:19.680Z,25.85
2023-03-23T16:07:46.257Z,26.53
2023-03-23T16:10:18.307Z,26.82
2023-03-23T16:12:46.166Z,27.25
2023-03-23T16:15:16.379Z,27.75
2023-03-23T16:17:43.780Z,27.78
2023-03-23T16:20:21.949Z,28.70
2023-03-23T16:22:49.651Z,29.14
2023-03-23T16:25:16.660Z,29.25
2023-03-23T16:27:43.801Z,29.41
2023-03-23T16:30:22.889Z,29.41
2023-03-23T16:32:49.567Z,29.96
2023-03-23T16:35:18.770Z,30.37
2023-03-23T16:37:47.459Z,30.36
2023-03-23T16:40:15.294Z,31.03
2023-03-23T16:42:42.145Z,30.65
2023-03-23T16:45:09.766Z,31.31
2023-03-23T16:47:36.816Z,31.11
2023-03-23T16:50:06.823Z,31.55
2023-03-23T16:52:34.191Z,31.90
2023-03-23T16:55:14.541Z,32.08
2023-03-23T16:57:42.179Z,32.63
2023-03-23T17:00:15.573Z,33.20
2023-03-23T17:02:43.628Z,33.72
2023-03-23T17:05:14.197Z,33.67
2023-03-23T17:07:42.104Z,34.30
2023-03-23T17:10:11.122Z,33.81
2023-03-23T17:12:37.880Z,34.48
2023-03-23T17:15:06.214Z,35.24
2023-03-23T17:17:34.658Z,35.99
2023-03-23T17:20:01.374Z,36.23
2023-03-23T17:22:28.365Z,36.54
2023-03-23T17:24:54.940Z,36.34
2023-03-23T17:27:22.530Z,37.19
2023-03-23T17:29:49.166Z,36.98
2023-03-23T17:32:16.046Z,38.52
2023-03-23T17:34:42.622Z,38.19
2023-03-23T17:37:09.828Z,38.55
2023-03-23T17:39:43.245Z,38.33
2023-03-23T17:42:10.857Z,39.25
2023-03-23T17:44:37.495Z,39.58
2023-03-23T17:47:04.181Z,38.67
2023-03-23T17:49:31.264Z,39.50
2023-03-23T17:51:58.938Z,40.62
2023-03-23T17:54:27.255Z,40.32
2023-03-23T17:56:54.084Z,40.64
2023-03-23T17:59:21.820Z,40.53
2023-03-23T18:01:49.900Z,41.13
2023-03-23T18:04:17.113Z,40.28
2023-03-23T18:06:43.960Z,40.95
2023-03-23T18:09:10.988Z,40.92
2023-03-23T18:11:37.587Z,41.46
2023-03-23T18:14:04.263Z,41.19
2023-03-23T18:16:31.050Z,41.17
2023-03-23T18:18:57.764Z,40.84
2023-03-23T18:21:24.580Z,41.42
2023-03-23T18:23:59.361Z,41.32
2023-03-23T18:26:27.714Z,41.29
2023-03-23T18:28:55.074Z,41.76
2023-03-23T18:31:22.795Z,41.31
2023-03-23T18:33:51.147Z,41.46
2023-03-23T18:36:20.694Z,41.57
2023-03-23T18:38:48.214Z,41.31
2023-03-23T18:41:15.505Z,41.38
2023-03-23T18:43:42.267Z,41.83
2023-03-23T18:46:09.218Z,41.80
2023-03-23T18:48:36.241Z,42.10
2023-03-23T18:51:03.325Z,42.50
2023-03-23T18:53:30.227Z,42.62
2023-03-23T18:56:09.627Z,42.92
2023-03-23T18:58:37.000Z,42.79
2023-03-23T19:01:09.261Z,43.61
2023-03-23T19:03:37.149Z,43.68
2023-03-23T19:06:04.635Z,43.95
2023-03-23T19:08:32.524Z,43.91
2023-03-23T19:11:02.334Z,43.76
2023-03-23T19:13:30.795Z,43.67
2023-03-23T19:15:57.612Z,43.93
2023-03-23T19:18:24.235Z,44.10
2023-03-23T19:23:23.441Z,43.71
2023-03-23T19:25:50.472Z,44.07
2023-03-23T19:30:48.458Z,44.28
2023-03-23T19:33:15.664Z,44.00
2023-03-23T19:35:43.909Z,44.49
2023-03-23T19:38:11.609Z,44.57
2023-03-23T19:40:42.057Z,44.49
2023-03-23T19:43:09.801Z,44.52
2023-03-23T19:45:37.004Z,44.54
2023-03-23T19:48:04.097Z,44.73
2023-03-23T19:50:31.768Z,44.79
2023-03-23T19:53:00.170Z,45.22
2023-03-23T19:55:27.492Z,45.09
2023-03-23T19:57:55.388Z,45.19
2023-03-23T20:00:24.122Z,46.27
2023-03-23T20:02:51.559Z,46.17
2023-03-23T20:05:18.616Z,46.71
2023-03-23T20:07:48.697Z,47.81
2023-03-23T20:10:18.323Z,47.13
2023-03-23T20:12:44.922Z,47.12
2023-03-23T20:15:11.466Z,47.70
2023-03-23T20:17:38.250Z,49.16
2023-03-23T20:20:10.148Z,49.04
2023-03-23T20:22:37.457Z,50.78
2023-03-23T20:25:04.799Z,51.60
2023-03-23T20:27:32.384Z,51.21
2023-03-23T20:29:59.216Z,51.63
2023-03-23T20:32:26.182Z,52.07
2023-03-23T20:34:53.172Z,52.69
2023-03-23T20:37:20.762Z,51.22
2023-03-23T20:39:48.646Z,52.61
2023-03-23T20:42:15.612Z,54.73
2023-03-23T20:44:42.953Z,53.04
2023-03-23T20:47:10.484Z,55.18
2023-03-23T20:49:38.591Z,55.75
2023-03-23T20:52:08.971Z,56.50
2023-03-23T20:54:37.830Z,55.34
2023-03-23T20:57:04.550Z,55.16
2023-03-23T20:59:31.182Z,55.89
2023-03-23T21:01:57.897Z,55.91
2023-03-23T21:04:27.455Z,55.29
2023-03-23T21:06:54.482Z,55.53
2023-03-23T21:09:21.341Z,57.71
2023-03-23T21:11:48.553Z,56.97
2023-03-23T21:14:15.542Z,57.90
2023-03-23T21:16:43.069Z,59.15
2023-03-23T21:19:10.694Z,59.26
2023-03-23T21:21:55.175Z,57.46
2023-03-23T21:24:26.530Z,57.65
2023-03-23T21:26:54.661Z,58.67
2023-03-23T21:29:24.157Z,58.84
2023-03-23T21:32:01.059Z,58.29
2023-03-23T21:34:34.069Z,58.62
2023-03-23T21:37:00.715Z,59.13
2023-03-23T21:39:28.218Z,60.31
2023-03-23T21:41:55.046Z,59.42
2023-03-23T21:44:21.686Z,60.31
2023-03-23T21:46:48.260Z,61.51
2023-03-23T21:49:14.865Z,62.26
2023-03-23T21:51:42.745Z,62.94
2023-03-23T21:54:10.719Z,61.86
2023-03-23T21:56:37.810Z,62.47
2023-03-23T21:59:07.331Z,61.06
2023-03-23T22:01:37.345Z,62.04
2023-03-23T22:04:05.083Z,61.82
2023-03-23T22:06:34.339Z,63.11
2023-03-23T22:09:02.547Z,62.83
2023-03-23T22:11:31.543Z,63.24
2023-03-23T22:13:58.990Z,63.71
2023-03-23T22:16:26.355Z,63.07
2023-03-23T22:18:55.247Z,66.01
2023-03-23T22:21:25.929Z,65.49
2023-03-23T22:23:54.680Z,65.43
2023-03-23T22:26:21.470Z,63.49
2023-03-23T22:28:49.580Z,63.02
2023-03-23T22:31:21.318Z,63.95
2023-03-23T22:33:49.470Z,65.57
2023-03-23T22:36:16.965Z,65.28
2023-03-23T22:38:47.928Z,65.50
2023-03-23T22:41:21.256Z,65.73
2023-03-23T22:43:48.318Z,65.69
2023-03-23T22:46:15.895Z,64.60
2023-03-23T22:48:42.704Z,66.24
2023-03-23T22:51:10.894Z,66.23
2023-03-23T22:53:37.984Z,66.30
2023-03-23T22:56:05.641Z,67.15
2023-03-23T22:58:32.327Z,66.64
2023-03-23T23:01:05.497Z,67.42
2023-03-23T23:03:32.851Z,66.94
2023-03-23T23:06:00.049Z,67.45
2023-03-23T23:08:28.742Z,67.77
2023-03-23T23:10:58.150Z,68.78
2023-03-23T23:13:25.978Z,69.26
2023-03-23T23:15:56.406Z,68.45
2023-03-23T23:18:24.094Z,67.80
2023-03-23T23:20:53.550Z,67.70
2023-03-23T23:23:21.112Z,67.87
2023-03-23T23:25:48.985Z,68.39
2023-03-23T23:28:16.115Z,68.61
2023-03-23T23:30:43.076Z,67.99
2023-03-23T23:33:09.855Z,68.35
2023-03-23T23:35:39.088Z,68.44
2023-03-23T23:38:06.948Z,68.76
2023-03-23T23:40:35.350Z,69.88
2023-03-23T23:43:03.280Z,71.34
2023-03-23T23:45:29.993Z,70.22
2023-03-23T23:47:56.721Z,71.19
2023-03-23T23:50:23.652Z,71.12
2023-03-23T23:52:50.752Z,71.11
2023-03-23T23:55:17.806Z,71.48
2023-03-23T23:57:46.480Z,71.59
